Accueil
METAR-TAF:

METAR-TAF

Aéroports :

Lannion, France

Aéroport de Lannion-Côte de Granit

latitude: 48-45N, longitude: 003-28W, altitude: 89 m

Observation

Le bulletin a été fait il y a 31 minutes, à 02:30 UTC
Vent 5 kt de ouest/sud-ouest
Température 14°C
Humidité 100%
Pression 1018 hPa
Visibilité 10 km ou plus
Quelques nuages à une hauteur de 500 ft
Nuages épars à une hauteur de 1600 ft

METAR: LFRO 240230Z AUTO 25005KT 9999 FEW005 SCT016 14/14 Q1018

Heure: 05:01 (03:01 UTC)

Prévision

Le bulletin a été fait il y a 16 heures et 1 minutes, à 11:00 UTC
Prévision valable du 23 à 12 UTC au 24 à 12 UTC
Vent 12 kt de ouest
Visibilité 10 km ou plus
Nuages fragmentés à une hauteur de 2500 ft

TAF: LFRO 231100Z 2312/2412 27012KT 9999 BKN025

Observations et prévisions météorologiques de plus de 4000 aéroports (messages METAR et TAF).

Les stations disponibles sont représentées par des disques jaunes et rouges sur la carte.

Passer la souris dessus pour voir le nom de la station.

Cliquer dessus pour voir les observations et prévisions météorologiques.

Pour changer de carte: cliquez sur les boutons verts avec une croix noire pour zoomer, sur le bouton vert avec un tiret pour effectuer un zoom arrière, ou sur les flèches vertes pour les cartes adjacentes.


METAR-TAF: